weather.gov     
National Weather Service

Terminal Aerodrome Forecast
NWS Homepage
This page is being discontinued on March 12, 2014.
The same data is available at this site. Please update your bookmarks.
Thank you, and we apologize for the inconvenience.
Please send an email to SR-SRH.Webmaster@noaa.gov with any concerns.


Current Version
Previous Version:    01  02  03  04  05  06  07  08  09  10  11  12  13  14  15  16  17  18  19  20  21  22  23  24  25  26  27  28  29  30  
   31  
[Printable]
822
FTUS44 KHGX 301723
TAFCXO
TAF
KCXO 301723Z 3018/0118 15007KT P6SM SCT025 SCT035
     FM302300 12007KT P6SM VCTS BKN035CB
     FM010100 13008KT P6SM FEW030 SCT250
     FM010500 15004KT P6SM SCT012 SCT250
      TEMPO 0108/0112 BKN012
     FM011600 16007KT P6SM SCT030 SCT250=


822
FTUS44 KHGX 301723
TAFCXO
TAF
KCXO 301723Z 3018/0118 15007KT P6SM SCT025 SCT035
     FM302300 12007KT P6SM VCTS BKN035CB
     FM010100 13008KT P6SM FEW030 SCT250
     FM010500 15004KT P6SM SCT012 SCT250
      TEMPO 0108/0112 BKN012
     FM011600 16007KT P6SM SCT030 SCT250=




U.S. Dept. of Commerce
NOAA National Weather Service
1325 East West Highway
Silver Spring, MD 20910
E-mail: w-nws.webmaster@noaa.gov
Page last modified: May 16, 2007
NATIONAL WEATHER SERVICE: for Safety, for Work, for Fun - FOR LIFE